createdAt,value
2023-03-31T00:01:13.038Z,14.45
2023-03-31T00:03:44.581Z,14.54
2023-03-31T00:06:17.881Z,14.45
2023-03-31T00:08:45.080Z,14.44
2023-03-31T00:11:11.978Z,14.38
2023-03-31T00:13:41.162Z,14.36
2023-03-31T00:16:13.228Z,14.33
2023-03-31T00:18:47.683Z,14.35
2023-03-31T00:21:29.495Z,14.33
2023-03-31T00:23:58.702Z,14.28
2023-03-31T00:26:26.289Z,14.41
2023-03-31T00:28:53.772Z,14.48
2023-03-31T00:31:21.964Z,14.48
2023-03-31T00:33:49.415Z,14.38
2023-03-31T00:36:21.311Z,14.43
2023-03-31T00:38:48.914Z,14.46
2023-03-31T00:41:16.045Z,14.53
2023-03-31T00:44:04.725Z,14.50
2023-03-31T00:46:34.785Z,14.50
2023-03-31T00:49:01.609Z,14.50
2023-03-31T00:51:32.316Z,14.46
2023-03-31T00:54:05.465Z,14.49
2023-03-31T00:56:39.887Z,14.44
2023-03-31T00:59:11.257Z,14.35
2023-03-31T01:01:43.467Z,14.35
2023-03-31T01:04:14.068Z,14.44
2023-03-31T01:06:50.705Z,14.29
2023-03-31T01:09:17.257Z,14.26
2023-03-31T01:11:46.499Z,14.27
2023-03-31T01:14:16.374Z,14.21
2023-03-31T01:16:44.318Z,14.14
2023-03-31T01:19:24.761Z,14.07
2023-03-31T01:22:28.016Z,14.06
2023-03-31T01:25:26.297Z,13.96
2023-03-31T01:27:58.874Z,13.96
2023-03-31T01:30:37.585Z,13.81
2023-03-31T01:33:39.308Z,13.91
2023-03-31T01:36:30.600Z,13.86
2023-03-31T01:39:02.966Z,13.84
2023-03-31T01:41:41.820Z,13.70
2023-03-31T01:44:16.628Z,13.77
2023-03-31T01:47:07.042Z,13.63
2023-03-31T01:49:43.450Z,13.78
2023-03-31T01:52:21.564Z,13.82
2023-03-31T01:54:52.830Z,13.93
2023-03-31T01:57:19.235Z,13.89
2023-03-31T02:00:11.628Z,13.97
2023-03-31T02:03:01.589Z,13.61
2023-03-31T02:05:35.300Z,13.56
2023-03-31T02:08:04.533Z,13.61
2023-03-31T02:10:33.927Z,13.68
2023-03-31T02:13:02.462Z,13.65
2023-03-31T02:15:36.458Z,13.65
2023-03-31T02:18:06.227Z,13.74
2023-03-31T02:20:33.755Z,14.01
2023-03-31T02:23:00.782Z,14.19
2023-03-31T02:25:38.535Z,14.43
2023-03-31T02:28:12.827Z,14.62
2023-03-31T02:30:48.961Z,14.74
2023-03-31T02:33:19.425Z,14.77
2023-03-31T02:35:46.147Z,14.91
2023-03-31T02:38:12.720Z,15.09
2023-03-31T02:40:39.199Z,15.28
2023-03-31T02:43:05.846Z,15.36
2023-03-31T02:45:42.976Z,15.43
2023-03-31T02:48:23.329Z,15.39
2023-03-31T02:51:08.507Z,15.48
2023-03-31T02:54:06.191Z,15.44
2023-03-31T02:56:51.354Z,15.37
2023-03-31T02:59:39.500Z,15.27
2023-03-31T03:02:22.218Z,15.26
2023-03-31T03:05:21.547Z,15.20
2023-03-31T03:08:37.645Z,15.25
2023-03-31T03:11:11.660Z,15.19
2023-03-31T03:13:56.411Z,15.25
2023-03-31T03:16:25.812Z,15.20
2023-03-31T03:19:01.324Z,15.16
2023-03-31T03:21:28.862Z,15.09
2023-03-31T03:23:55.517Z,15.00
2023-03-31T03:26:28.126Z,14.99
2023-03-31T03:28:56.609Z,14.97
2023-03-31T03:31:24.216Z,15.06
2023-03-31T03:33:55.884Z,14.96
2023-03-31T03:36:25.656Z,14.88
2023-03-31T03:38:52.929Z,14.81
2023-03-31T03:41:19.462Z,14.77
2023-03-31T03:43:46.024Z,14.82
2023-03-31T03:46:13.066Z,14.80
2023-03-31T03:48:39.509Z,14.80
2023-03-31T03:51:06.524Z,14.73
2023-03-31T03:53:33.129Z,14.64
2023-03-31T03:55:59.626Z,14.63
2023-03-31T03:58:26.343Z,14.62
2023-03-31T04:00:57.111Z,14.55
2023-03-31T04:03:27.098Z,14.49
2023-03-31T04:05:55.488Z,14.44
2023-03-31T04:08:22.176Z,14.31
2023-03-31T04:10:49.870Z,14.19
2023-03-31T04:13:17.644Z,14.21
2023-03-31T04:15:44.518Z,14.09
2023-03-31T04:18:25.035Z,13.98
2023-03-31T04:21:04.201Z,14.02
2023-03-31T04:23:35.252Z,13.96
2023-03-31T04:26:02.786Z,13.94
2023-03-31T04:28:34.809Z,13.95
2023-03-31T04:31:02.784Z,13.93
2023-03-31T04:33:29.748Z,13.89
2023-03-31T04:35:56.407Z,13.77
2023-03-31T04:38:27.397Z,13.82
2023-03-31T04:40:58.060Z,13.81
2023-03-31T04:43:26.060Z,13.84
2023-03-31T04:45:59.977Z,13.75
2023-03-31T04:48:26.490Z,13.64
2023-03-31T04:50:55.638Z,13.64
2023-03-31T04:53:27.407Z,13.54
2023-03-31T04:56:05.407Z,13.45
2023-03-31T04:58:32.309Z,13.45
2023-03-31T05:00:59.000Z,13.57
2023-03-31T05:03:28.446Z,13.50
2023-03-31T05:06:09.076Z,13.52
2023-03-31T05:08:36.204Z,13.46
2023-03-31T05:11:04.075Z,13.42
2023-03-31T05:13:30.626Z,13.50
2023-03-31T05:15:57.150Z,13.39
2023-03-31T05:18:26.528Z,13.34
2023-03-31T05:20:55.516Z,13.38
2023-03-31T05:23:22.081Z,13.20
2023-03-31T05:25:48.518Z,13.20
2023-03-31T05:28:14.937Z,13.17
2023-03-31T05:30:41.401Z,13.23
2023-03-31T05:33:07.984Z,13.04
2023-03-31T05:35:35.043Z,13.12
2023-03-31T05:38:01.572Z,13.09
2023-03-31T05:40:28.068Z,12.94
2023-03-31T05:42:55.169Z,12.85
2023-03-31T05:45:21.661Z,12.83
2023-03-31T05:47:48.394Z,12.87
2023-03-31T05:50:15.079Z,12.72
2023-03-31T05:52:41.567Z,12.71
2023-03-31T05:55:08.647Z,12.71
2023-03-31T05:57:35.185Z,12.67
2023-03-31T06:00:02.093Z,12.57
2023-03-31T06:02:28.623Z,12.60
2023-03-31T06:04:58.198Z,12.58
2023-03-31T06:07:27.893Z,12.61
2023-03-31T06:09:55.641Z,12.60
2023-03-31T06:12:22.182Z,12.59
2023-03-31T06:14:48.703Z,12.65
2023-03-31T06:17:15.364Z,12.67
2023-03-31T06:19:41.829Z,12.71
2023-03-31T06:22:08.360Z,12.78
2023-03-31T06:24:34.875Z,12.95
2023-03-31T06:27:01.438Z,13.18
2023-03-31T06:29:28.051Z,13.40
2023-03-31T06:31:57.309Z,13.49
2023-03-31T06:34:25.289Z,13.56
2023-03-31T06:36:51.917Z,13.47
2023-03-31T06:39:18.356Z,13.24
2023-03-31T06:41:44.811Z,13.33
2023-03-31T06:44:11.356Z,13.26
2023-03-31T06:46:37.875Z,13.26
2023-03-31T06:49:04.426Z,13.21
2023-03-31T06:51:32.587Z,13.17
2023-03-31T06:53:59.382Z,13.02
2023-03-31T06:56:27.396Z,13.00
2023-03-31T06:58:56.870Z,12.89
2023-03-31T07:01:27.240Z,13.08
2023-03-31T07:03:57.496Z,12.94
2023-03-31T07:06:27.225Z,12.90
2023-03-31T07:08:57.088Z,12.83
2023-03-31T07:11:25.717Z,12.84
2023-03-31T07:13:52.138Z,13.17
2023-03-31T07:16:18.648Z,13.25
2023-03-31T07:18:45.292Z,13.19
2023-03-31T07:21:12.051Z,13.34
2023-03-31T07:23:38.967Z,13.31
2023-03-31T07:26:06.405Z,13.38
2023-03-31T07:28:33.035Z,13.62
2023-03-31T07:30:59.592Z,13.71
2023-03-31T07:33:26.174Z,13.57
2023-03-31T07:36:08.219Z,13.63
2023-03-31T07:38:38.119Z,13.60
2023-03-31T07:41:09.112Z,13.52
2023-03-31T07:43:36.484Z,13.80
2023-03-31T07:46:03.324Z,13.88
2023-03-31T07:48:30.000Z,13.83
2023-03-31T07:50:56.537Z,14.07
2023-03-31T07:53:23.699Z,13.76
2023-03-31T07:55:50.256Z,13.99
2023-03-31T07:58:16.683Z,13.83
2023-03-31T08:00:43.207Z,13.72
2023-03-31T08:03:09.815Z,13.62
2023-03-31T08:05:36.486Z,13.64
2023-03-31T08:08:03.235Z,13.71
2023-03-31T08:10:29.967Z,13.64
2023-03-31T08:12:56.509Z,13.75
2023-03-31T08:15:25.416Z,14.20
2023-03-31T08:17:52.045Z,14.58
2023-03-31T08:20:18.646Z,14.96
2023-03-31T08:22:45.290Z,15.20
2023-03-31T08:25:11.944Z,15.02
2023-03-31T08:27:40.720Z,15.23
2023-03-31T08:30:09.204Z,15.20
2023-03-31T08:32:36.442Z,15.40
2023-03-31T08:35:04.495Z,15.51
2023-03-31T08:37:32.339Z,15.81
2023-03-31T08:39:58.841Z,15.93
2023-03-31T08:42:37.286Z,15.95
2023-03-31T08:45:26.251Z,16.18
2023-03-31T08:47:59.407Z,16.66
2023-03-31T08:50:30.623Z,16.55
2023-03-31T08:53:04.819Z,16.54
2023-03-31T08:55:49.259Z,16.47
2023-03-31T08:58:36.257Z,16.50
2023-03-31T09:01:44.387Z,15.79
2023-03-31T09:04:47.355Z,16.08
2023-03-31T09:07:37.041Z,15.42
2023-03-31T09:10:09.623Z,15.19
2023-03-31T09:12:50.013Z,14.87
2023-03-31T09:15:42.246Z,14.88
2023-03-31T09:18:35.802Z,14.80
2023-03-31T09:21:05.544Z,14.71
2023-03-31T09:23:37.276Z,14.53
2023-03-31T09:26:04.896Z,14.37
2023-03-31T09:28:39.679Z,14.00
2023-03-31T09:31:16.014Z,12.84
2023-03-31T09:33:45.549Z,11.51
2023-03-31T09:36:18.322Z,10.71
2023-03-31T09:38:46.142Z,10.26
2023-03-31T09:41:14.950Z,9.89
2023-03-31T09:43:42.540Z,9.84
2023-03-31T09:46:33.228Z,9.88
2023-03-31T09:49:05.848Z,10.19
2023-03-31T09:51:37.301Z,10.51
2023-03-31T09:54:45.623Z,10.63
2023-03-31T09:57:33.504Z,11.50
2023-03-31T10:00:17.007Z,12.79
2023-03-31T10:02:45.877Z,13.34
2023-03-31T10:05:29.193Z,13.88
2023-03-31T10:08:14.501Z,14.20
2023-03-31T10:10:46.737Z,14.50
2023-03-31T10:13:18.714Z,15.08
2023-03-31T10:15:45.504Z,15.27
2023-03-31T10:18:17.330Z,15.73
2023-03-31T10:20:49.072Z,16.16
2023-03-31T10:23:22.948Z,16.28
2023-03-31T10:25:50.879Z,16.81
2023-03-31T10:28:19.952Z,16.90
2023-03-31T10:31:02.797Z,16.98
2023-03-31T10:33:35.026Z,17.10
2023-03-31T10:36:14.753Z,16.86
2023-03-31T10:38:46.744Z,16.79
2023-03-31T10:41:19.604Z,16.31
2023-03-31T10:43:56.228Z,16.32
2023-03-31T10:46:41.422Z,16.48
2023-03-31T10:49:26.373Z,16.92
2023-03-31T10:51:59.055Z,17.55
2023-03-31T10:54:29.370Z,16.87
2023-03-31T10:57:03.413Z,16.48
2023-03-31T10:59:46.763Z,16.97
2023-03-31T11:02:50.732Z,17.15
2023-03-31T11:05:40.254Z,16.93
2023-03-31T11:08:15.744Z,17.25
2023-03-31T11:10:53.384Z,17.55
2023-03-31T11:13:47.615Z,17.90
2023-03-31T11:16:42.625Z,18.55
2023-03-31T11:19:38.961Z,18.19
2023-03-31T11:22:30.998Z,18.84
2023-03-31T11:25:27.948Z,18.88
2023-03-31T11:28:21.102Z,17.74
2023-03-31T11:30:53.556Z,16.40
2023-03-31T11:33:28.007Z,17.13
2023-03-31T11:36:30.570Z,17.52
2023-03-31T11:39:08.266Z,18.17
2023-03-31T11:41:39.700Z,18.69
2023-03-31T11:44:11.755Z,17.93
2023-03-31T11:46:48.464Z,18.66
2023-03-31T11:49:19.262Z,18.38
2023-03-31T11:52:01.276Z,18.25
2023-03-31T11:54:39.074Z,17.25
2023-03-31T11:57:16.116Z,17.35
2023-03-31T11:59:44.492Z,17.10
2023-03-31T12:02:19.547Z,17.17
2023-03-31T12:04:53.270Z,16.41
2023-03-31T12:07:38.396Z,15.99
2023-03-31T12:10:19.491Z,16.34
2023-03-31T12:12:51.870Z,17.61
2023-03-31T12:15:21.785Z,17.90
2023-03-31T12:17:59.605Z,18.60
2023-03-31T12:20:32.035Z,18.39
2023-03-31T12:23:02.507Z,18.11
2023-03-31T12:25:42.658Z,17.93
2023-03-31T12:28:11.510Z,18.17
2023-03-31T12:30:43.162Z,17.73
2023-03-31T12:33:15.695Z,17.65
2023-03-31T12:36:19.287Z,18.22
2023-03-31T12:38:58.101Z,18.20
2023-03-31T12:41:34.015Z,18.21
2023-03-31T12:44:03.154Z,18.04
2023-03-31T12:46:32.757Z,17.46
2023-03-31T12:49:11.469Z,16.83
2023-03-31T12:51:41.001Z,16.44
2023-03-31T12:54:38.068Z,16.01
2023-03-31T12:57:15.380Z,15.58
2023-03-31T12:59:43.882Z,15.56
2023-03-31T13:02:10.530Z,15.64
2023-03-31T13:04:38.126Z,14.91
2023-03-31T13:07:25.425Z,14.06
2023-03-31T13:09:59.027Z,13.75
2023-03-31T13:12:31.442Z,13.08
2023-03-31T13:15:03.203Z,12.38
2023-03-31T13:17:36.923Z,11.30
2023-03-31T13:20:29.590Z,10.59
2023-03-31T13:23:25.616Z,10.30
2023-03-31T13:25:54.154Z,10.65
2023-03-31T13:28:23.141Z,12.20
2023-03-31T13:30:51.369Z,13.24
2023-03-31T13:33:23.466Z,13.88
2023-03-31T13:36:12.963Z,14.42
2023-03-31T13:39:26.891Z,14.94
2023-03-31T13:42:33.397Z,15.73
2023-03-31T13:45:08.587Z,15.67
2023-03-31T13:48:03.976Z,15.16
2023-03-31T13:51:05.979Z,14.69
2023-03-31T13:54:06.361Z,13.86
2023-03-31T13:56:53.848Z,13.27
2023-03-31T13:59:28.673Z,12.88
2023-03-31T14:01:58.940Z,12.75
2023-03-31T14:04:36.239Z,12.57
2023-03-31T14:07:08.770Z,12.59
2023-03-31T14:09:43.950Z,12.47
2023-03-31T14:12:38.073Z,12.31
2023-03-31T14:15:06.398Z,13.51
2023-03-31T14:17:40.664Z,14.69
2023-03-31T14:20:26.521Z,14.89
2023-03-31T14:22:57.368Z,15.36
2023-03-31T14:25:47.164Z,15.61
2023-03-31T14:28:29.578Z,15.50
2023-03-31T14:31:20.357Z,15.43
2023-03-31T14:33:52.799Z,15.47
2023-03-31T14:36:47.697Z,15.75
2023-03-31T14:39:21.273Z,16.31
2023-03-31T14:41:55.256Z,16.16
2023-03-31T14:44:22.087Z,15.93
2023-03-31T14:46:48.635Z,15.65
2023-03-31T14:49:18.852Z,16.05
2023-03-31T14:51:45.921Z,16.09
2023-03-31T14:54:19.835Z,15.94
2023-03-31T14:56:54.036Z,16.04
2023-03-31T14:59:37.454Z,15.67
2023-03-31T15:02:05.537Z,15.48
2023-03-31T15:04:45.001Z,15.94
2023-03-31T15:07:13.180Z,15.35
2023-03-31T15:09:41.681Z,14.74
2023-03-31T15:12:15.094Z,14.19
2023-03-31T15:14:47.033Z,13.69
2023-03-31T15:17:29.450Z,13.31
2023-03-31T15:19:58.499Z,13.02
2023-03-31T15:22:27.566Z,13.03
2023-03-31T15:24:54.756Z,12.71
2023-03-31T15:27:44.813Z,12.61
2023-03-31T15:30:18.667Z,11.82
2023-03-31T15:32:45.687Z,10.89
2023-03-31T15:35:25.771Z,10.49
2023-03-31T15:37:56.265Z,10.26
2023-03-31T15:40:25.730Z,10.33
2023-03-31T15:43:13.489Z,10.38
2023-03-31T15:45:47.974Z,10.66
2023-03-31T15:48:35.963Z,10.64
2023-03-31T15:51:12.921Z,10.73
2023-03-31T15:53:51.007Z,10.79
2023-03-31T15:56:35.902Z,11.62
2023-03-31T15:59:07.068Z,11.96
2023-03-31T16:01:46.070Z,12.27
2023-03-31T16:04:14.697Z,12.37
2023-03-31T16:06:55.507Z,12.13
2023-03-31T16:09:29.207Z,11.88
2023-03-31T16:12:03.457Z,12.09
2023-03-31T16:14:37.991Z,12.58
2023-03-31T16:17:22.436Z,12.87
2023-03-31T16:19:58.141Z,13.03
2023-03-31T16:22:36.166Z,13.05
2023-03-31T16:25:12.263Z,12.59
2023-03-31T16:27:49.060Z,12.88
2023-03-31T16:30:54.633Z,13.63
2023-03-31T16:33:25.937Z,13.58
2023-03-31T16:38:54.844Z,12.99
2023-03-31T16:41:23.427Z,12.73
2023-03-31T16:43:52.558Z,12.27
2023-03-31T16:46:19.468Z,12.05
2023-03-31T16:48:46.390Z,11.81
2023-03-31T16:51:13.456Z,11.33
2023-03-31T16:53:40.325Z,11.10
2023-03-31T16:56:08.365Z,11.03
2023-03-31T16:58:36.418Z,10.98
2023-03-31T17:01:07.308Z,10.73
2023-03-31T17:03:36.676Z,10.22
2023-03-31T17:06:11.951Z,9.77
2023-03-31T17:08:39.618Z,9.64
2023-03-31T17:11:10.985Z,9.40
2023-03-31T17:13:41.965Z,9.19
2023-03-31T17:16:20.356Z,9.04
2023-03-31T17:18:53.671Z,8.89
2023-03-31T17:21:20.729Z,8.87
2023-03-31T17:23:53.225Z,8.85
2023-03-31T17:26:20.085Z,8.91
2023-03-31T17:28:46.952Z,8.86
2023-03-31T17:31:21.112Z,8.90
2023-03-31T17:33:51.876Z,9.09
2023-03-31T17:36:18.512Z,9.52
2023-03-31T17:38:45.301Z,9.85
2023-03-31T17:41:13.426Z,10.05
2023-03-31T17:43:43.800Z,10.24
2023-03-31T17:46:13.778Z,10.26
2023-03-31T17:48:41.108Z,10.35
2023-03-31T17:51:12.041Z,10.31
2023-03-31T17:53:39.689Z,10.28
2023-03-31T17:56:06.278Z,10.32
2023-03-31T17:58:35.608Z,10.19
2023-03-31T18:01:07.777Z,10.11
2023-03-31T18:03:34.721Z,10.12
2023-03-31T18:06:11.542Z,10.05
2023-03-31T18:08:38.920Z,10.04
2023-03-31T18:11:07.082Z,10.02
2023-03-31T18:13:38.903Z,10.00
2023-03-31T18:16:08.715Z,9.98
2023-03-31T18:18:36.688Z,10.00
2023-03-31T18:21:11.989Z,10.06
2023-03-31T18:23:39.530Z,10.14
2023-03-31T18:26:07.749Z,10.06
2023-03-31T18:28:34.215Z,9.96
2023-03-31T18:31:05.186Z,9.96
2023-03-31T18:33:37.347Z,9.88
2023-03-31T18:36:08.567Z,9.79
2023-03-31T18:38:37.052Z,9.69
2023-03-31T18:41:07.513Z,9.73
2023-03-31T18:43:34.985Z,9.82
2023-03-31T18:46:04.774Z,9.81
2023-03-31T18:48:35.294Z,9.74
2023-03-31T18:51:04.455Z,9.72
2023-03-31T18:53:34.960Z,9.42
2023-03-31T18:56:01.498Z,9.58
2023-03-31T18:58:30.188Z,9.48
2023-03-31T19:00:58.207Z,9.45
2023-03-31T19:03:26.744Z,9.57
2023-03-31T19:06:05.551Z,9.59
2023-03-31T19:08:33.596Z,9.39
2023-03-31T19:11:07.525Z,9.53
2023-03-31T19:13:38.399Z,9.27
2023-03-31T19:16:07.867Z,9.31
2023-03-31T19:18:36.471Z,9.18
2023-03-31T19:21:04.173Z,9.17
2023-03-31T19:23:31.731Z,9.06
2023-03-31T19:25:59.584Z,9.01
2023-03-31T19:28:27.710Z,8.98
2023-03-31T19:30:56.638Z,9.05
2023-03-31T19:33:24.253Z,9.00
2023-03-31T19:35:51.343Z,9.02
2023-03-31T19:38:18.811Z,9.01
2023-03-31T19:40:45.718Z,8.95
2023-03-31T19:43:20.808Z,9.05
2023-03-31T19:45:53.217Z,9.10
2023-03-31T19:48:20.956Z,9.21
2023-03-31T19:50:51.625Z,9.25
2023-03-31T19:53:19.081Z,9.41
2023-03-31T19:55:58.542Z,9.40
2023-03-31T19:58:26.257Z,9.39
2023-03-31T20:00:54.408Z,9.30
2023-03-31T20:03:22.263Z,9.29
2023-03-31T20:05:48.877Z,9.40
2023-03-31T20:08:16.301Z,9.35
2023-03-31T20:10:42.863Z,9.27
2023-03-31T20:13:10.042Z,9.28
2023-03-31T20:15:41.106Z,9.18
2023-03-31T20:18:07.947Z,9.20
2023-03-31T20:20:38.137Z,9.29
2023-03-31T20:23:09.344Z,9.24
2023-03-31T20:25:38.867Z,9.17
2023-03-31T20:28:08.439Z,9.19
2023-03-31T20:30:38.935Z,9.25
2023-03-31T20:33:08.170Z,9.19
2023-03-31T20:35:36.537Z,9.14
2023-03-31T20:38:03.163Z,9.10
2023-03-31T20:40:29.600Z,9.19
2023-03-31T20:42:56.024Z,9.15
2023-03-31T20:45:22.517Z,9.10
2023-03-31T20:47:49.623Z,9.10
2023-03-31T20:50:16.746Z,9.09
2023-03-31T20:52:47.469Z,9.03
2023-03-31T20:55:14.061Z,9.01
2023-03-31T20:57:41.085Z,8.96
2023-03-31T21:00:11.326Z,8.89
2023-03-31T21:02:38.551Z,8.91
2023-03-31T21:05:08.290Z,8.84
2023-03-31T21:07:34.730Z,8.87
2023-03-31T21:10:01.477Z,8.86
2023-03-31T21:12:27.920Z,8.86
2023-03-31T21:14:54.808Z,8.84
2023-03-31T21:17:21.338Z,8.87
2023-03-31T21:19:47.796Z,8.89
2023-03-31T21:22:14.254Z,8.89
2023-03-31T21:24:40.765Z,8.95
2023-03-31T21:27:10.617Z,8.77
2023-03-31T21:29:39.601Z,8.77
2023-03-31T21:32:09.328Z,8.73
2023-03-31T21:34:36.479Z,8.71
2023-03-31T21:37:03.487Z,8.82
2023-03-31T21:39:30.566Z,8.82
2023-03-31T21:41:57.590Z,8.87
2023-03-31T21:44:24.245Z,8.85
2023-03-31T21:46:52.161Z,8.96
2023-03-31T21:49:19.571Z,8.99
2023-03-31T21:51:46.646Z,9.09
2023-03-31T21:54:13.436Z,9.05
2023-03-31T21:56:40.266Z,9.09
2023-03-31T21:59:09.396Z,9.15
2023-03-31T22:01:35.925Z,9.14
2023-03-31T22:04:02.653Z,9.17
2023-03-31T22:06:29.301Z,9.28
2023-03-31T22:08:56.189Z,9.37
2023-03-31T22:11:23.608Z,9.38
2023-03-31T22:13:50.438Z,9.25
2023-03-31T22:16:22.300Z,9.15
2023-03-31T22:18:50.575Z,9.05
2023-03-31T22:21:26.847Z,8.96
2023-03-31T22:23:56.234Z,8.94
2023-03-31T22:26:23.494Z,8.95
2023-03-31T22:28:50.101Z,8.88
2023-03-31T22:31:16.606Z,8.83
2023-03-31T22:33:43.474Z,8.78
2023-03-31T22:36:13.324Z,8.75
2023-03-31T22:38:42.721Z,8.80
2023-03-31T22:41:11.529Z,8.81
2023-03-31T22:43:37.977Z,8.83
2023-03-31T22:46:06.192Z,8.69
2023-03-31T22:48:33.538Z,8.71
2023-03-31T22:51:06.350Z,8.61
2023-03-31T22:53:33.503Z,8.67
2023-03-31T22:56:05.726Z,8.64
2023-03-31T22:58:32.692Z,8.75
2023-03-31T23:01:00.014Z,8.48
2023-03-31T23:03:27.222Z,8.71
2023-03-31T23:05:54.050Z,8.77
2023-03-31T23:08:20.642Z,8.74
2023-03-31T23:10:58.665Z,8.74
2023-03-31T23:13:25.999Z,8.78
2023-03-31T23:15:52.889Z,8.70
2023-03-31T23:18:19.495Z,8.72
2023-03-31T23:20:45.933Z,8.67
2023-03-31T23:23:15.626Z,8.76
2023-03-31T23:25:45.860Z,8.72
2023-03-31T23:28:16.814Z,8.74
2023-03-31T23:30:52.216Z,8.73
2023-03-31T23:33:18.663Z,8.66
2023-03-31T23:35:45.087Z,8.63
2023-03-31T23:38:14.380Z,8.61
2023-03-31T23:40:40.842Z,8.54
2023-03-31T23:43:07.314Z,8.61
2023-03-31T23:45:33.926Z,8.72
2023-03-31T23:48:00.509Z,8.74
2023-03-31T23:50:28.143Z,8.78
2023-03-31T23:52:55.572Z,8.69
2023-03-31T23:55:22.164Z,8.64
2023-03-31T23:57:48.773Z,8.70
